Time;durP1;ratioP1;P1;durP2;ratioP2;P2;SDS_P1;SDS_P2;PMS_P1;PMS_P2;Temp;Humidity;BMP_temperature;BMP_pressure;BME280_temperature;BME280_humidity;BME280_pressure;Samples;Min_cycle;Max_cycle;Signal;HPM_P1;HPM_P2
2023/07/13 00:02:02;;;;;;;3.97;1.85;;;;;;;;;;5107765;28;20032;-64
2023/07/13 00:04:28;;;;;;;9.20;1.77;;;;;;;;;;5102982;28;20031;-64
2023/07/13 00:06:53;;;;;;;5.53;1.92;;;;;;;;;;5107914;28;20031;-63
2023/07/13 00:09:19;;;;;;;6.60;1.38;;;;;;;;;;5108332;28;20028;-63
2023/07/13 00:11:47;;;;;;;5.10;1.48;;;;;;;;;;5108552;28;20106;-63
2023/07/13 00:14:12;;;;;;;7.68;1.80;;;;;;;;;;5100607;28;20024;-64
2023/07/13 00:16:40;;;;;;;4.57;2.00;;;;;;;;;;5091734;28;20073;-63
2023/07/13 00:19:06;;;;;;;5.47;1.85;;;;;;;;;;5101441;28;20023;-63
2023/07/13 00:21:31;;;;;;;6.50;2.20;;;;;;;;;;5099611;28;20023;-64
2023/07/13 00:23:56;;;;;;;10.30;2.03;;;;;;;;;;5111168;28;20482;-64
2023/07/13 00:26:21;;;;;;;5.28;1.38;;;;;;;;;;5108365;28;20100;-64
2023/07/13 00:28:47;;;;;;;3.08;1.58;;;;;;;;;;5110433;28;20039;-64
2023/07/13 00:31:14;;;;;;;7.28;2.63;;;;;;;;;;5108995;28;20031;-64
2023/07/13 00:33:40;;;;;;;6.63;2.50;;;;;;;;;;5111519;28;20047;-64
2023/07/13 00:36:05;;;;;;;3.67;1.60;;;;;;;;;;5110462;28;20063;-64
2023/07/13 00:38:30;;;;;;;4.07;1.63;;;;;;;;;;5110310;28;20111;-64
2023/07/13 00:40:56;;;;;;;9.83;1.60;;;;;;;;;;5109145;28;20119;-64
2023/07/13 00:43:22;;;;;;;9.32;1.90;;;;;;;;;;5106472;28;20284;-64
2023/07/13 00:45:47;;;;;;;5.93;2.28;;;;;;;;;;5099631;28;20039;-64
2023/07/13 00:48:18;;;;;;;5.35;2.38;;;;;;;;;;5097221;28;20028;-64
2023/07/13 00:50:44;;;;;;;5.50;2.22;;;;;;;;;;5092273;28;20055;-64
2023/07/13 00:53:11;;;;;;;8.55;2.63;;;;;;;;;;5098088;28;20435;-64
2023/07/13 00:55:37;;;;;;;3.50;1.67;;;;;;;;;;5094820;28;20444;-64
2023/07/13 00:58:04;;;;;;;6.72;2.25;;;;;;;;;;5099390;28;20016;-64
2023/07/13 01:00:30;;;;;;;5.60;2.17;;;;;;;;;;5094383;28;20031;-64
2023/07/13 01:02:55;;;;;;;5.55;2.33;;;;;;;;;;5096405;28;20377;-64
2023/07/13 01:05:22;;;;;;;5.63;2.22;;;;;;;;;;5094303;28;20032;-64
2023/07/13 01:07:49;;;;;;;5.00;2.40;;;;;;;;;;5104947;28;20026;-64
2023/07/13 01:10:14;;;;;;;7.07;2.90;;;;;;;;;;5094043;28;20024;-64
2023/07/13 01:12:40;;;;;;;7.20;2.30;;;;;;;;;;5092366;28;20028;-64
2023/07/13 01:15:25;;;;;;;5.65;2.40;;;;;;;;;;5094417;28;20028;-63
2023/07/13 01:17:51;;;;;;;4.95;2.17;;;;;;;;;;5104478;28;20028;-63
2023/07/13 01:20:17;;;;;;;4.28;1.88;;;;;;;;;;5110897;28;20016;-63
2023/07/13 01:22:42;;;;;;;4.63;1.92;;;;;;;;;;5111629;28;20055;-64
2023/07/13 01:25:08;;;;;;;6.45;2.33;;;;;;;;;;5109545;28;20042;-63
2023/07/13 01:27:34;;;;;;;7.10;2.47;;;;;;;;;;5105348;28;20365;-63
2023/07/13 01:30:03;;;;;;;5.78;1.88;;;;;;;;;;5110926;28;20023;-64
2023/07/13 01:32:28;;;;;;;6.72;2.42;;;;;;;;;;5111134;28;20080;-63
2023/07/13 01:34:54;;;;;;;4.22;2.25;;;;;;;;;;5104402;28;20024;-63
2023/07/13 01:37:20;;;;;;;5.22;2.00;;;;;;;;;;5091112;28;20101;-63
2023/07/13 01:39:46;;;;;;;6.03;2.38;;;;;;;;;;5091429;28;20043;-63
2023/07/13 01:42:11;;;;;;;7.50;2.63;;;;;;;;;;5091512;28;20442;-63
2023/07/13 01:44:37;;;;;;;6.10;2.90;;;;;;;;;;5104506;28;20098;-63
2023/07/13 01:47:02;;;;;;;8.90;2.33;;;;;;;;;;5090714;28;20019;-63
2023/07/13 01:49:27;;;;;;;10.48;2.90;;;;;;;;;;5104556;28;20378;-64
2023/07/13 01:51:53;;;;;;;17.10;2.53;;;;;;;;;;5110569;28;20394;-64
2023/07/13 01:54:18;;;;;;;7.43;2.63;;;;;;;;;;5110713;28;20023;-64
2023/07/13 01:56:43;;;;;;;5.10;2.63;;;;;;;;;;5105089;28;20059;-63
2023/07/13 01:59:08;;;;;;;8.67;2.63;;;;;;;;;;5107177;28;20274;-63
2023/07/13 02:01:34;;;;;;;5.05;2.15;;;;;;;;;;5099214;28;20744;-63
2023/07/13 02:03:59;;;;;;;6.13;2.65;;;;;;;;;;5105857;28;20016;-63
2023/07/13 02:06:24;;;;;;;7.43;2.73;;;;;;;;;;5108074;28;20032;-63
2023/07/13 02:08:49;;;;;;;7.10;1.95;;;;;;;;;;5105952;28;20281;-63
2023/07/13 02:11:15;;;;;;;9.02;3.20;;;;;;;;;;5098893;28;20030;-63
2023/07/13 02:13:40;;;;;;;9.00;3.05;;;;;;;;;;5093688;28;20027;-63
2023/07/13 02:16:06;;;;;;;6.38;2.65;;;;;;;;;;5097360;28;20022;-63
2023/07/13 02:18:31;;;;;;;9.02;2.60;;;;;;;;;;5095814;28;20024;-63
2023/07/13 02:20:56;;;;;;;5.07;2.40;;;;;;;;;;5093501;28;20028;-63
2023/07/13 02:23:22;;;;;;;9.50;2.72;;;;;;;;;;5095943;28;20019;-63
2023/07/13 02:25:47;;;;;;;7.07;2.60;;;;;;;;;;5093095;28;20085;-63
2023/07/13 02:28:12;;;;;;;11.48;2.95;;;;;;;;;;5091216;28;20111;-63
2023/07/13 02:30:38;;;;;;;6.32;2.55;;;;;;;;;;5106034;28;20062;-63
2023/07/13 02:33:03;;;;;;;8.85;2.65;;;;;;;;;;5090839;28;20383;-63
2023/07/13 02:35:28;;;;;;;7.30;3.03;;;;;;;;;;5090530;28;20036;-63
2023/07/13 02:37:54;;;;;;;5.73;2.50;;;;;;;;;;5091905;28;20024;-63
2023/07/13 02:40:19;;;;;;;8.65;2.00;;;;;;;;;;5110105;28;20288;-63
2023/07/13 02:42:44;;;;;;;8.65;2.65;;;;;;;;;;5101317;28;20054;-63
2023/07/13 02:45:10;;;;;;;6.28;1.88;;;;;;;;;;5099573;28;20166;-63
2023/07/13 02:47:35;;;;;;;6.78;2.90;;;;;;;;;;5094774;28;20024;-63
2023/07/13 02:50:01;;;;;;;7.85;2.97;;;;;;;;;;5097603;28;20036;-63
2023/07/13 02:52:26;;;;;;;5.60;2.50;;;;;;;;;;5101141;28;20095;-64
2023/07/13 02:54:51;;;;;;;8.38;3.40;;;;;;;;;;5095714;28;20020;-63
2023/07/13 02:57:17;;;;;;;5.50;2.58;;;;;;;;;;5093994;28;20722;-63
2023/07/13 02:59:42;;;;;;;8.65;2.90;;;;;;;;;;5094094;28;20062;-63
2023/07/13 03:02:08;;;;;;;14.13;2.88;;;;;;;;;;5103985;28;20019;-63
2023/07/13 03:04:35;;;;;;;21.13;2.72;;;;;;;;;;5107188;28;20450;-63
2023/07/13 03:07:00;;;;;;;7.82;2.85;;;;;;;;;;5105069;28;20019;-63
2023/07/13 03:09:25;;;;;;;7.93;3.80;;;;;;;;;;5106246;28;20498;-63
2023/07/13 03:11:54;;;;;;;5.18;2.85;;;;;;;;;;5101347;28;20697;-63
2023/07/13 03:14:20;;;;;;;8.90;3.47;;;;;;;;;;5105902;28;20098;-63
2023/07/13 03:16:45;;;;;;;15.30;3.78;;;;;;;;;;5103356;28;20781;-63
2023/07/13 03:19:10;;;;;;;9.17;2.97;;;;;;;;;;5102707;28;20029;-63
2023/07/13 03:21:35;;;;;;;6.60;2.80;;;;;;;;;;5096352;28;20262;-63
2023/07/13 03:24:01;;;;;;;7.20;3.40;;;;;;;;;;5102580;28;20106;-63
2023/07/13 03:26:26;;;;;;;9.63;3.30;;;;;;;;;;5111832;28;20064;-63
2023/07/13 03:28:51;;;;;;;8.68;2.72;;;;;;;;;;5102851;28;20072;-63
2023/07/13 03:31:19;;;;;;;9.25;3.30;;;;;;;;;;5113682;28;20386;-63
2023/07/13 03:33:45;;;;;;;7.30;3.20;;;;;;;;;;5113458;28;20027;-63
2023/07/13 03:36:13;;;;;;;5.10;2.53;;;;;;;;;;5110642;28;20101;-63
2023/07/13 03:38:38;;;;;;;11.93;3.75;;;;;;;;;;5101387;28;20031;-63
2023/07/13 03:41:04;;;;;;;11.93;3.70;;;;;;;;;;5097761;28;20027;-63
2023/07/13 03:43:29;;;;;;;5.68;3.00;;;;;;;;;;5111574;28;20281;-63
2023/07/13 03:45:55;;;;;;;7.03;2.75;;;;;;;;;;5113346;28;20020;-63
2023/07/13 03:48:20;;;;;;;8.07;3.88;;;;;;;;;;5110476;28;20501;-63
2023/07/13 03:50:46;;;;;;;7.72;3.08;;;;;;;;;;5101446;28;20446;-63
2023/07/13 03:53:11;;;;;;;7.55;3.13;;;;;;;;;;5103977;28;20044;-63
2023/07/13 03:55:37;;;;;;;7.85;3.50;;;;;;;;;;5100492;28;20067;-63
2023/07/13 03:58:21;;;;;;;10.98;3.63;;;;;;;;;;5102752;28;20467;-62
2023/07/13 04:00:46;;;;;;;11.23;3.80;;;;;;;;;;5101337;28;20027;-63
2023/07/13 04:03:11;;;;;;;8.65;3.25;;;;;;;;;;5100262;28;20296;-63
2023/07/13 04:05:37;;;;;;;7.70;3.15;;;;;;;;;;5103925;28;20566;-63
2023/07/13 04:08:02;;;;;;;13.35;3.15;;;;;;;;;;5108067;28;20027;-64
2023/07/13 04:10:27;;;;;;;13.35;3.78;;;;;;;;;;5110013;28;20070;-63
2023/07/13 04:12:53;;;;;;;7.07;3.20;;;;;;;;;;5107474;28;20059;-63
2023/07/13 04:15:18;;;;;;;12.30;3.38;;;;;;;;;;5105995;28;20288;-64
2023/07/13 04:17:43;;;;;;;8.15;3.80;;;;;;;;;;5094422;28;20110;-64
2023/07/13 04:20:09;;;;;;;10.27;3.70;;;;;;;;;;5096594;28;20015;-64
2023/07/13 04:22:34;;;;;;;9.20;3.95;;;;;;;;;;5111555;28;20641;-64
2023/07/13 04:25:00;;;;;;;8.32;3.25;;;;;;;;;;5111069;28;20023;-63
2023/07/13 04:27:25;;;;;;;9.90;3.88;;;;;;;;;;5110847;28;20035;-63
2023/07/13 04:29:51;;;;;;;7.78;3.22;;;;;;;;;;5110880;28;21394;-63
2023/07/13 04:32:16;;;;;;;14.55;3.92;;;;;;;;;;5106524;28;20374;-63
2023/07/13 04:34:41;;;;;;;14.40;4.03;;;;;;;;;;5110117;28;20028;-64
2023/07/13 04:37:07;;;;;;;9.70;3.77;;;;;;;;;;5111716;28;20641;-63
2023/07/13 04:39:32;;;;;;;10.18;4.10;;;;;;;;;;5111621;28;20285;-63
2023/07/13 04:41:57;;;;;;;6.87;3.67;;;;;;;;;;5100920;28;20019;-63
2023/07/13 04:44:23;;;;;;;17.30;4.97;;;;;;;;;;5112122;28;20309;-64
2023/07/13 04:46:48;;;;;;;6.93;3.25;;;;;;;;;;5107105;28;20427;-63
2023/07/13 04:49:13;;;;;;;9.45;3.88;;;;;;;;;;5112470;28;20174;-63
2023/07/13 04:51:39;;;;;;;11.95;3.95;;;;;;;;;;5111158;28;20094;-63
2023/07/13 04:54:04;;;;;;;14.73;4.65;;;;;;;;;;5098458;28;20020;-62
2023/07/13 04:56:30;;;;;;;9.65;3.58;;;;;;;;;;5089508;28;20036;-63
2023/07/13 04:58:55;;;;;;;10.20;4.43;;;;;;;;;;5096855;28;20035;-65
2023/07/13 05:01:21;;;;;;;10.98;3.83;;;;;;;;;;5097388;28;20023;-63
2023/07/13 05:03:46;;;;;;;14.10;4.05;;;;;;;;;;5111469;28;20122;-63
2023/07/13 05:06:12;;;;;;;14.77;4.25;;;;;;;;;;5105723;28;20016;-63
2023/07/13 05:08:37;;;;;;;11.75;3.92;;;;;;;;;;5103672;28;20027;-63
2023/07/13 05:11:03;;;;;;;13.93;4.15;;;;;;;;;;5096394;28;20031;-63
2023/07/13 05:13:29;;;;;;;8.65;3.40;;;;;;;;;;5102308;28;20028;-63
2023/07/13 05:16:01;;;;;;;9.18;3.97;;;;;;;;;;5098472;28;20028;-63
2023/07/13 05:18:26;;;;;;;11.07;3.40;;;;;;;;;;5103785;28;20084;-63
2023/07/13 05:21:01;;;;;;;10.75;4.05;;;;;;;;;;5107252;28;20377;-64
2023/07/13 05:23:27;;;;;;;12.90;3.08;;;;;;;;;;5102391;28;20024;-64
2023/07/13 05:25:52;;;;;;;9.75;4.22;;;;;;;;;;5107937;28;20020;-65
2023/07/13 05:28:17;;;;;;;10.75;3.88;;;;;;;;;;5094054;28;20146;-64
2023/07/13 05:30:46;;;;;;;12.63;3.83;;;;;;;;;;5106859;28;20035;-64
2023/07/13 05:33:12;;;;;;;12.10;4.25;;;;;;;;;;5102501;28;20266;-64
2023/07/13 05:35:37;;;;;;;19.27;3.97;;;;;;;;;;5106078;28;20035;-64
2023/07/13 05:38:02;;;;;;;6.95;2.95;;;;;;;;;;5102000;28;20347;-63
2023/07/13 05:40:28;;;;;;;10.35;3.55;;;;;;;;;;5106367;28;20023;-64
2023/07/13 05:42:53;;;;;;;8.57;3.20;;;;;;;;;;5106806;28;20023;-64
2023/07/13 05:45:18;;;;;;;8.73;3.80;;;;;;;;;;5110334;28;20581;-63
2023/07/13 05:47:43;;;;;;;10.67;4.47;;;;;;;;;;5097178;28;20327;-63
2023/07/13 05:50:09;;;;;;;13.30;4.60;;;;;;;;;;5110779;28;20277;-64
2023/07/13 05:52:34;;;;;;;13.38;4.20;;;;;;;;;;5108736;28;20292;-64
2023/07/13 05:54:59;;;;;;;12.23;4.80;;;;;;;;;;5110374;28;20020;-63
2023/07/13 05:57:24;;;;;;;13.33;5.03;;;;;;;;;;5101798;28;20032;-64
2023/07/13 05:59:50;;;;;;;11.57;4.80;;;;;;;;;;5110476;28;20755;-64
2023/07/13 06:02:15;;;;;;;16.00;5.47;;;;;;;;;;5109267;28;20657;-62
2023/07/13 06:04:40;;;;;;;13.15;4.68;;;;;;;;;;5109938;28;20024;-63
2023/07/13 06:07:05;;;;;;;19.17;5.40;;;;;;;;;;5110155;28;20020;-63
2023/07/13 06:09:30;;;;;;;21.35;4.85;;;;;;;;;;5110990;28;20394;-63
2023/07/13 06:11:56;;;;;;;9.33;4.10;;;;;;;;;;5111728;28;20024;-64
2023/07/13 06:14:21;;;;;;;8.67;4.40;;;;;;;;;;5112926;28;20311;-63
2023/07/13 06:16:46;;;;;;;11.63;4.63;;;;;;;;;;5111412;28;20294;-64
2023/07/13 06:19:11;;;;;;;15.00;5.00;;;;;;;;;;5094931;28;20108;-64
2023/07/13 06:21:37;;;;;;;11.33;4.20;;;;;;;;;;5107270;28;20027;-64
2023/07/13 06:24:02;;;;;;;10.40;4.97;;;;;;;;;;5106762;28;20745;-63
2023/07/13 06:26:28;;;;;;;21.60;6.03;;;;;;;;;;5105126;28;20372;-64
2023/07/13 06:28:53;;;;;;;15.50;5.25;;;;;;;;;;5102479;28;20028;-64
2023/07/13 06:31:19;;;;;;;13.60;5.28;;;;;;;;;;5107262;28;20398;-64
2023/07/13 06:33:44;;;;;;;17.45;5.72;;;;;;;;;;5105823;28;20356;-63
2023/07/13 06:36:10;;;;;;;16.40;5.78;;;;;;;;;;5112551;28;20059;-63
2023/07/13 06:38:35;;;;;;;15.63;5.22;;;;;;;;;;5102175;28;20016;-64
2023/07/13 06:41:00;;;;;;;18.48;6.55;;;;;;;;;;5108733;28;20057;-63
2023/07/13 06:43:26;;;;;;;20.70;5.45;;;;;;;;;;5110228;28;20019;-64
2023/07/13 06:45:51;;;;;;;13.82;5.93;;;;;;;;;;5112977;28;20024;-64
2023/07/13 06:48:17;;;;;;;16.38;5.15;;;;;;;;;;5106738;28;20032;-63
2023/07/13 06:50:43;;;;;;;19.92;5.22;;;;;;;;;;5095582;28;20051;-64
2023/07/13 06:53:10;;;;;;;13.98;5.32;;;;;;;;;;5107106;28;20024;-63
2023/07/13 06:55:35;;;;;;;11.27;5.20;;;;;;;;;;5100058;28;20030;-63
2023/07/13 06:58:00;;;;;;;26.20;6.10;;;;;;;;;;5083418;28;20019;-64
2023/07/13 07:00:25;;;;;;;13.87;5.07;;;;;;;;;;5102450;28;20028;-63
2023/07/13 07:02:51;;;;;;;18.20;6.03;;;;;;;;;;5096195;28;20274;-63
2023/07/13 07:05:16;;;;;;;20.45;5.70;;;;;;;;;;5104912;28;20323;-64
2023/07/13 07:07:41;;;;;;;18.50;5.50;;;;;;;;;;5101226;28;20020;-63
2023/07/13 07:10:07;;;;;;;15.20;4.83;;;;;;;;;;5099712;28;20023;-64
2023/07/13 07:12:32;;;;;;;12.85;5.32;;;;;;;;;;5098422;28;20274;-64
2023/07/13 07:14:57;;;;;;;12.98;4.78;;;;;;;;;;5099637;28;20111;-64
2023/07/13 07:17:23;;;;;;;16.77;5.10;;;;;;;;;;5096354;28;20024;-63
2023/07/13 07:19:48;;;;;;;11.37;5.17;;;;;;;;;;5108838;28;20035;-64
2023/07/13 07:22:13;;;;;;;13.25;5.63;;;;;;;;;;5114343;28;20775;-64
2023/07/13 07:24:38;;;;;;;11.35;5.18;;;;;;;;;;5098353;28;20031;-64
2023/07/13 07:27:04;;;;;;;17.03;5.40;;;;;;;;;;5107346;28;20551;-64
2023/07/13 07:29:29;;;;;;;9.68;4.60;;;;;;;;;;5100005;28;20301;-64
2023/07/13 07:31:54;;;;;;;16.55;4.85;;;;;;;;;;5094236;28;20032;-64
2023/07/13 07:34:20;;;;;;;15.80;5.93;;;;;;;;;;5094555;28;20028;-64
2023/07/13 07:36:45;;;;;;;11.67;4.97;;;;;;;;;;5094398;28;20301;-64
2023/07/13 07:39:11;;;;;;;20.20;5.57;;;;;;;;;;5093965;28;20380;-63
2023/07/13 07:41:36;;;;;;;13.55;4.95;;;;;;;;;;5093928;28;20462;-64
2023/07/13 07:44:03;;;;;;;8.98;4.80;;;;;;;;;;5104559;28;20028;-64
2023/07/13 07:46:28;;;;;;;14.20;4.97;;;;;;;;;;5096659;28;20032;-64
2023/07/13 07:48:53;;;;;;;12.80;5.10;;;;;;;;;;5093561;28;20035;-63
2023/07/13 07:51:19;;;;;;;19.23;4.73;;;;;;;;;;5094577;28;20266;-63
2023/07/13 07:53:44;;;;;;;16.40;5.35;;;;;;;;;;5094919;28;20590;-64
2023/07/13 07:56:10;;;;;;;10.73;4.53;;;;;;;;;;5095650;28;20448;-64
2023/07/13 07:58:35;;;;;;;7.43;4.72;;;;;;;;;;5095245;28;20278;-64
2023/07/13 08:01:04;;;;;;;15.13;5.93;;;;;;;;;;5096150;28;20035;-64
2023/07/13 08:03:29;;;;;;;10.00;4.75;;;;;;;;;;5094614;28;20546;-63
2023/07/13 08:05:54;;;;;;;13.52;5.05;;;;;;;;;;5095804;28;20024;-64
2023/07/13 08:08:20;;;;;;;11.03;5.07;;;;;;;;;;5094650;28;20077;-63
2023/07/13 08:10:45;;;;;;;11.03;4.30;;;;;;;;;;5095334;28;20273;-64
2023/07/13 08:13:10;;;;;;;20.92;5.05;;;;;;;;;;5093872;28;20324;-64
2023/07/13 08:15:36;;;;;;;12.67;5.40;;;;;;;;;;5095428;28;20032;-64
2023/07/13 08:18:02;;;;;;;14.80;5.70;;;;;;;;;;5106782;28;20798;-64
2023/07/13 08:20:27;;;;;;;16.80;4.70;;;;;;;;;;5112871;28;20039;-64
2023/07/13 08:22:52;;;;;;;12.13;4.47;;;;;;;;;;5113369;28;20139;-64
2023/07/13 08:25:18;;;;;;;15.43;5.07;;;;;;;;;;5112923;28;20022;-64
2023/07/13 08:27:43;;;;;;;15.30;5.22;;;;;;;;;;5112855;28;20281;-64
2023/07/13 08:30:08;;;;;;;14.55;4.15;;;;;;;;;;5112864;28;20016;-64
2023/07/13 08:32:34;;;;;;;10.18;4.75;;;;;;;;;;5100296;28;20024;-64
2023/07/13 08:34:59;;;;;;;12.73;4.75;;;;;;;;;;5111194;28;20077;-63
2023/07/13 08:37:24;;;;;;;18.17;5.47;;;;;;;;;;5113131;28;20069;-63
2023/07/13 08:39:50;;;;;;;9.53;4.53;;;;;;;;;;5092805;28;20381;-64
2023/07/13 08:42:26;;;;;;;16.35;5.15;;;;;;;;;;5096369;28;20282;-64
2023/07/13 08:44:51;;;;;;;17.50;4.50;;;;;;;;;;5109791;28;20100;-64
2023/07/13 08:47:17;;;;;;;12.27;4.93;;;;;;;;;;5112739;28;20482;-63
2023/07/13 08:49:44;;;;;;;11.68;4.82;;;;;;;;;;5099102;28;20027;-63
2023/07/13 08:52:28;;;;;;;8.95;4.25;;;;;;;;;;5112986;28;20393;-64
2023/07/13 08:54:55;;;;;;;7.05;3.33;;;;;;;;;;5107090;28;20020;-64
2023/07/13 08:57:24;;;;;;;14.40;4.72;;;;;;;;;;5092699;28;20386;-63
2023/07/13 08:59:50;;;;;;;13.10;4.20;;;;;;;;;;5093835;28;20016;-63
2023/07/13 09:02:39;;;;;;;12.82;3.88;;;;;;;;;;5093529;28;20031;-63
2023/07/13 09:05:10;;;;;;;8.32;3.55;;;;;;;;;;5093296;28;20028;-63
2023/07/13 09:07:39;;;;;;;7.22;3.92;;;;;;;;;;5093096;28;20097;-63
2023/07/13 09:10:08;;;;;;;8.98;3.95;;;;;;;;;;5102703;28;20028;-63
2023/07/13 09:12:36;;;;;;;9.38;3.88;;;;;;;;;;5111625;28;20020;-64
2023/07/13 09:15:04;;;;;;;8.73;4.00;;;;;;;;;;5111808;28;20020;-63
2023/07/13 09:17:35;;;;;;;8.20;4.25;;;;;;;;;;5102838;28;20081;-63
2023/07/13 09:20:23;;;;;;;10.23;3.78;;;;;;;;;;5092812;28;20050;-63
2023/07/13 09:22:48;;;;;;;10.38;4.45;;;;;;;;;;5092039;28;20024;-63
2023/07/13 09:25:30;;;;;;;14.75;4.45;;;;;;;;;;5092550;28;20028;-63
2023/07/13 09:27:58;;;;;;;11.88;4.05;;;;;;;;;;5093726;28;20433;-64
2023/07/13 09:30:27;;;;;;;9.25;3.92;;;;;;;;;;5105311;28;20031;-63
2023/07/13 09:32:53;;;;;;;12.02;4.13;;;;;;;;;;5093545;28;20016;-64
2023/07/13 09:35:27;;;;;;;9.98;4.13;;;;;;;;;;5092508;28;20394;-64
2023/07/13 09:37:56;;;;;;;12.85;3.92;;;;;;;;;;5093199;28;20038;-64
2023/07/13 09:40:28;;;;;;;9.23;4.63;;;;;;;;;;5093020;28;20089;-64
2023/07/13 09:42:54;;;;;;;16.08;4.03;;;;;;;;;;5105911;28;20031;-63
2023/07/13 09:45:29;;;;;;;14.05;3.63;;;;;;;;;;5111668;28;20157;-63
2023/07/13 09:48:11;;;;;;;12.75;3.45;;;;;;;;;;5109071;28;20031;-63
2023/07/13 09:50:36;;;;;;;9.60;4.07;;;;;;;;;;5100805;28;20035;-64
2023/07/13 09:53:02;;;;;;;10.10;3.55;;;;;;;;;;5095963;28;20024;-63
2023/07/13 09:55:30;;;;;;;15.45;4.25;;;;;;;;;;5094868;28;20040;-63
2023/07/13 09:57:57;;;;;;;12.35;3.22;;;;;;;;;;5093053;28;20487;-63
2023/07/13 10:00:27;;;;;;;8.75;3.30;;;;;;;;;;5105757;28;20020;-64
2023/07/13 10:03:03;;;;;;;10.75;3.53;;;;;;;;;;5103572;28;20095;-63
2023/07/13 10:05:36;;;;;;;11.07;3.72;;;;;;;;;;5109025;28;20043;-63
2023/07/13 10:08:02;;;;;;;8.07;3.50;;;;;;;;;;5098591;28;20169;-63
2023/07/13 10:10:27;;;;;;;10.25;4.03;;;;;;;;;;5103319;28;20181;-64
2023/07/13 10:12:52;;;;;;;8.23;2.83;;;;;;;;;;5103013;28;20453;-63
2023/07/13 10:15:27;;;;;;;7.80;3.15;;;;;;;;;;5106869;28;20065;-61
2023/07/13 10:17:54;;;;;;;8.55;3.58;;;;;;;;;;5110041;28;20055;-63
2023/07/13 10:20:20;;;;;;;7.10;2.88;;;;;;;;;;5109959;28;20432;-63
2023/07/13 10:22:51;;;;;;;10.05;3.20;;;;;;;;;;5108812;28;20019;-63
2023/07/13 10:25:22;;;;;;;7.72;2.80;;;;;;;;;;5091975;28;20024;-65
2023/07/13 10:27:49;;;;;;;10.48;3.50;;;;;;;;;;5104460;28;20634;-63
2023/07/13 10:30:14;;;;;;;7.85;3.92;;;;;;;;;;5099611;28;20023;-64
2023/07/13 10:32:39;;;;;;;10.63;2.93;;;;;;;;;;5101780;28;20027;-64
2023/07/13 10:35:07;;;;;;;9.15;3.10;;;;;;;;;;5096757;28;20266;-64
2023/07/13 10:37:40;;;;;;;7.35;3.10;;;;;;;;;;5107364;28;20028;-65
2023/07/13 10:40:11;;;;;;;8.90;2.88;;;;;;;;;;5101611;28;20024;-64
2023/07/13 10:42:39;;;;;;;10.80;3.50;;;;;;;;;;5106691;28;20028;-64
2023/07/13 10:45:13;;;;;;;14.63;3.25;;;;;;;;;;5107491;28;20103;-64
2023/07/13 10:47:39;;;;;;;6.55;2.70;;;;;;;;;;5107806;28;20036;-64
2023/07/13 10:50:05;;;;;;;8.77;2.83;;;;;;;;;;5108275;28;20051;-64
2023/07/13 10:52:42;;;;;;;5.28;2.38;;;;;;;;;;5106562;28;20098;-64
2023/07/13 10:55:27;;;;;;;8.95;2.97;;;;;;;;;;5108107;28;20034;-64
2023/07/13 10:57:53;;;;;;;5.45;2.45;;;;;;;;;;5107385;28;20027;-63
2023/07/13 11:00:18;;;;;;;5.55;2.40;;;;;;;;;;5111754;28;20018;-65
2023/07/13 11:02:56;;;;;;;8.27;2.67;;;;;;;;;;5111494;28;20386;-63
2023/07/13 11:05:24;;;;;;;9.88;2.78;;;;;;;;;;5099509;28;20028;-64
2023/07/13 11:07:55;;;;;;;5.38;2.65;;;;;;;;;;5100744;28;20016;-64
2023/07/13 11:10:39;;;;;;;8.65;2.55;;;;;;;;;;5110719;28;20118;-64
2023/07/13 11:13:04;;;;;;;5.57;2.73;;;;;;;;;;5111573;28;20031;-64
2023/07/13 11:15:31;;;;;;;7.72;2.80;;;;;;;;;;5110830;28;20296;-64
2023/07/13 11:18:00;;;;;;;5.60;2.55;;;;;;;;;;5101275;28;20081;-64
2023/07/13 11:20:33;;;;;;;5.70;2.20;;;;;;;;;;5106441;28;20035;-64
2023/07/13 11:23:22;;;;;;;6.15;2.22;;;;;;;;;;5106909;28;20027;-64
2023/07/13 11:25:47;;;;;;;5.53;2.00;;;;;;;;;;5092492;28;20044;-63
2023/07/13 11:28:12;;;;;;;8.85;2.70;;;;;;;;;;5096581;28;20099;-63
2023/07/13 11:30:46;;;;;;;5.77;2.43;;;;;;;;;;5097080;28;20043;-63
2023/07/13 11:33:30;;;;;;;6.68;2.47;;;;;;;;;;5079981;28;20028;-65
2023/07/13 11:36:05;;;;;;;6.05;2.42;;;;;;;;;;5091484;28;20397;-64
2023/07/13 11:38:37;;;;;;;6.20;2.83;;;;;;;;;;5107862;28;20372;-64
2023/07/13 11:41:16;;;;;;;5.90;1.88;;;;;;;;;;5104996;28;20046;-64
2023/07/13 11:43:42;;;;;;;5.68;2.70;;;;;;;;;;5106350;28;20020;-64
2023/07/13 11:46:20;;;;;;;4.82;2.08;;;;;;;;;;5108003;28;20030;-65
2023/07/13 11:48:47;;;;;;;6.25;2.78;;;;;;;;;;5100095;28;20023;-64
2023/07/13 11:51:17;;;;;;;6.68;2.58;;;;;;;;;;5106491;28;20019;-65
2023/07/13 11:53:45;;;;;;;6.95;2.53;;;;;;;;;;5105171;28;20527;-63
2023/07/13 11:56:11;;;;;;;5.80;2.17;;;;;;;;;;5104364;28;20024;-64
2023/07/13 11:58:36;;;;;;;8.00;3.38;;;;;;;;;;5100432;28;20047;-65
2023/07/13 12:01:04;;;;;;;10.98;3.30;;;;;;;;;;5099844;28;20043;-64
2023/07/13 12:03:30;;;;;;;10.13;3.38;;;;;;;;;;5105170;28;20035;-65
2023/07/13 12:06:05;;;;;;;7.25;3.08;;;;;;;;;;5107638;28;20027;-62
2023/07/13 12:08:31;;;;;;;15.13;3.55;;;;;;;;;;5100197;28;20023;-64
2023/07/13 12:10:58;;;;;;;8.95;3.08;;;;;;;;;;5108776;28;20028;-66
2023/07/13 12:13:26;;;;;;;8.02;3.38;;;;;;;;;;5104566;28;20032;-63
2023/07/13 12:15:51;;;;;;;4.28;2.40;;;;;;;;;;5102170;28;20020;-62
2023/07/13 12:18:21;;;;;;;6.43;2.13;;;;;;;;;;5098225;28;20035;-63
2023/07/13 12:20:47;;;;;;;6.68;2.65;;;;;;;;;;5111849;28;20028;-65
2023/07/13 12:23:27;;;;;;;10.38;3.05;;;;;;;;;;5107080;28;20078;-64
2023/07/13 12:25:53;;;;;;;8.07;2.47;;;;;;;;;;5112553;28;20030;-66
2023/07/13 12:28:30;;;;;;;5.35;2.50;;;;;;;;;;5109684;28;20023;-63
2023/07/13 12:31:00;;;;;;;7.80;2.50;;;;;;;;;;5103159;28;20023;-64
2023/07/13 12:33:28;;;;;;;8.23;2.30;;;;;;;;;;5110340;28;20386;-64
2023/07/13 12:35:53;;;;;;;4.85;2.38;;;;;;;;;;5111217;28;20791;-65
2023/07/13 12:38:21;;;;;;;8.30;2.55;;;;;;;;;;5106517;28;20099;-65
2023/07/13 12:40:49;;;;;;;7.20;2.58;;;;;;;;;;5112184;28;20023;-65
2023/07/13 12:43:14;;;;;;;5.45;2.00;;;;;;;;;;5111921;28;20027;-67
2023/07/13 12:45:55;;;;;;;5.70;2.05;;;;;;;;;;5102036;28;20046;-66
2023/07/13 12:48:21;;;;;;;7.22;2.38;;;;;;;;;;5104683;28;20031;-64
2023/07/13 12:50:47;;;;;;;16.83;3.30;;;;;;;;;;5105703;28;20016;-63
2023/07/13 12:53:14;;;;;;;8.98;3.13;;;;;;;;;;5099095;28;20028;-63
2023/07/13 12:56:01;;;;;;;13.73;2.63;;;;;;;;;;5104151;28;20027;-62
2023/07/13 12:58:28;;;;;;;5.70;2.17;;;;;;;;;;5101684;28;20051;-64
2023/07/13 13:00:57;;;;;;;4.90;2.47;;;;;;;;;;5099786;28;20051;-63
2023/07/13 13:03:29;;;;;;;9.68;2.47;;;;;;;;;;5096553;28;20030;-64
2023/07/13 13:05:59;;;;;;;5.53;2.13;;;;;;;;;;5094494;28;20107;-63
2023/07/13 13:08:25;;;;;;;6.28;2.30;;;;;;;;;;5077715;28;20106;-63
2023/07/13 13:10:50;;;;;;;5.37;2.50;;;;;;;;;;5096202;28;20439;-65
2023/07/13 13:13:15;;;;;;;4.03;1.92;;;;;;;;;;5105706;28;20270;-63
2023/07/13 13:15:40;;;;;;;3.67;1.40;;;;;;;;;;5106994;28;20040;-64
2023/07/13 13:18:24;;;;;;;7.00;2.43;;;;;;;;;;5104503;28;20047;-64
2023/07/13 13:20:50;;;;;;;5.03;2.43;;;;;;;;;;5091316;28;20360;-62
2023/07/13 13:23:17;;;;;;;4.53;1.67;;;;;;;;;;5105171;28;20020;-63
2023/07/13 13:25:42;;;;;;;6.15;1.90;;;;;;;;;;5101277;28;20020;-63
2023/07/13 13:28:14;;;;;;;5.72;1.98;;;;;;;;;;5110928;28;20084;-63
2023/07/13 13:30:40;;;;;;;4.60;1.70;;;;;;;;;;5095905;28;20027;-63
2023/07/13 13:33:08;;;;;;;7.22;2.40;;;;;;;;;;5105910;28;20103;-64
2023/07/13 13:35:34;;;;;;;4.78;1.50;;;;;;;;;;5093574;28;20024;-64
2023/07/13 13:37:59;;;;;;;4.53;2.07;;;;;;;;;;5107006;28;20371;-65
2023/07/13 13:40:24;;;;;;;9.10;2.40;;;;;;;;;;5110426;28;20261;-64
2023/07/13 13:42:51;;;;;;;6.03;2.20;;;;;;;;;;5107480;28;20325;-65
2023/07/13 13:45:17;;;;;;;4.28;2.10;;;;;;;;;;5100849;28;20273;-64
2023/07/13 13:47:43;;;;;;;4.90;2.20;;;;;;;;;;5107436;28;20016;-65
2023/07/13 13:50:14;;;;;;;8.18;2.83;;;;;;;;;;5108026;28;20020;-63
2023/07/13 13:52:40;;;;;;;14.50;2.80;;;;;;;;;;5106873;28;20347;-64
2023/07/13 13:55:11;;;;;;;13.32;2.65;;;;;;;;;;5109318;28;20034;-64
2023/07/13 13:57:37;;;;;;;9.73;2.42;;;;;;;;;;5108597;28;20402;-65
2023/07/13 14:00:02;;;;;;;6.00;2.50;;;;;;;;;;5109196;28;20020;-64
2023/07/13 14:02:31;;;;;;;9.07;2.22;;;;;;;;;;5107837;28;20035;-61
2023/07/13 14:05:00;;;;;;;8.57;2.30;;;;;;;;;;5110037;28;20033;-62
2023/07/13 14:07:26;;;;;;;4.45;2.22;;;;;;;;;;5109353;28;20133;-62
2023/07/13 14:09:55;;;;;;;3.50;1.75;;;;;;;;;;5108245;28;20031;-62
2023/07/13 14:12:20;;;;;;;4.63;1.80;;;;;;;;;;5109811;28;20039;-63
2023/07/13 14:14:45;;;;;;;3.88;2.00;;;;;;;;;;5110920;28;20081;-63
2023/07/13 14:17:24;;;;;;;4.63;2.03;;;;;;;;;;5103960;28;20069;-63
2023/07/13 14:19:51;;;;;;;4.78;1.75;;;;;;;;;;5104273;28;20036;-65
2023/07/13 14:22:17;;;;;;;5.97;2.20;;;;;;;;;;5091770;28;20397;-64
2023/07/13 14:24:42;;;;;;;22.40;3.05;;;;;;;;;;5092118;28;20493;-64
2023/07/13 14:27:09;;;;;;;8.43;1.93;;;;;;;;;;5091304;28;20028;-65
2023/07/13 14:29:34;;;;;;;9.52;2.80;;;;;;;;;;5092512;28;20645;-64
2023/07/13 14:31:59;;;;;;;3.92;1.80;;;;;;;;;;5100482;28;20038;-65
2023/07/13 14:34:24;;;;;;;4.63;1.67;;;;;;;;;;5100174;28;20099;-64
2023/07/13 14:36:50;;;;;;;4.70;1.80;;;;;;;;;;5094846;28;20321;-64
2023/07/13 14:39:21;;;;;;;4.00;1.60;;;;;;;;;;5094666;28;20289;-64